Time;durP1;ratioP1;P1;durP2;ratioP2;P2;SDS_P1;SDS_P2;PMS_P1;PMS_P2;Temp;Humidity;BMP_temperature;BMP_pressure;BME280_temperature;BME280_humidity;BME280_pressure;Samples;Min_cycle;Max_cycle;Signal;HPM_P1;HPM_P2
2021/04/11 00:00:10;;;;;;;132.35;68.93;;;9.70;88.60;;;;;;5121466;28;20015;-70
2021/04/11 00:02:36;;;;;;;88.22;47.10;;;9.70;87.80;;;;;;5121041;28;20127;-74
2021/04/11 00:05:04;;;;;;;66.95;36.97;;;9.70;87.00;;;;;;5121170;28;20023;-69
2021/04/11 00:07:31;;;;;;;63.33;35.22;;;9.80;86.90;;;;;;5120452;28;20059;-74
2021/04/11 00:09:57;;;;;;;64.80;39.15;;;9.80;88.20;;;;;;5121191;28;20062;-72
2021/04/11 00:12:22;;;;;;;70.13;41.13;;;9.70;87.90;;;;;;5120165;28;20090;-70
2021/04/11 00:14:48;;;;;;;69.35;39.83;;;9.60;87.70;;;;;;5119316;28;20032;-69
2021/04/11 00:17:14;;;;;;;68.65;38.92;;;9.50;89.10;;;;;;5118862;28;20015;-74
2021/04/11 00:19:40;;;;;;;143.70;71.97;;;9.40;89.70;;;;;;5118622;28;20020;-69
2021/04/11 00:22:06;;;;;;;89.18;49.83;;;9.50;89.40;;;;;;5120135;28;20023;-70
2021/04/11 00:24:32;;;;;;;80.03;48.33;;;9.50;90.00;;;;;;5118398;28;20028;-70
2021/04/11 00:26:59;;;;;;;80.95;46.75;;;9.50;89.60;;;;;;5119465;28;20016;-74
2021/04/11 00:29:25;;;;;;;70.07;41.65;;;9.40;90.20;;;;;;5119645;28;20047;-75
2021/04/11 00:31:50;;;;;;;81.75;49.25;;;9.20;90.70;;;;;;5119138;28;20031;-73
2021/04/11 00:34:16;;;;;;;76.85;46.50;;;9.10;90.80;;;;;;5119273;27;20053;-75
2021/04/11 00:36:42;;;;;;;93.35;50.80;;;9.20;90.50;;;;;;5118393;27;20023;-75
2021/04/11 00:39:08;;;;;;;75.88;44.58;;;9.30;90.70;;;;;;5119337;28;20020;-69
2021/04/11 00:41:44;;;;;;;76.97;44.45;;;9.40;90.60;;;;;;5115655;28;20020;-70
2021/04/11 00:44:12;;;;;;;74.30;41.13;;;9.30;90.70;;;;;;5117381;28;20046;-71
2021/04/11 00:46:46;;;;;;;67.25;38.08;;;9.10;90.80;;;;;;5118649;28;20079;-74
2021/04/11 00:49:33;;;;;;;67.60;36.65;;;9.10;91.20;;;;;;5119164;28;20057;-74
2021/04/11 00:52:01;;;;;;;59.88;35.33;;;9.10;91.50;;;;;;5117185;28;20031;-71
2021/04/11 00:54:27;;;;;;;60.25;36.63;;;9.10;91.00;;;;;;5118117;28;20022;-70
2021/04/11 00:56:54;;;;;;;56.47;33.95;;;9.20;91.60;;;;;;5117812;28;20016;-75
2021/04/11 00:59:20;;;;;;;56.50;34.92;;;9.10;91.80;;;;;;5117578;28;20140;-70
2021/04/11 01:01:47;;;;;;;56.80;34.83;;;9.10;91.80;;;;;;5114330;28;20019;-73
2021/04/11 01:04:15;;;;;;;66.30;35.42;;;9.10;91.70;;;;;;5117564;28;20064;-75
2021/04/11 01:06:48;;;;;;;56.05;33.80;;;9.00;91.90;;;;;;5116694;28;20571;-71
2021/04/11 01:09:25;;;;;;;62.58;33.95;;;9.00;91.90;;;;;;5116422;28;20023;-75
2021/04/11 01:11:54;;;;;;;56.75;33.33;;;8.90;92.10;;;;;;5117086;28;20020;-70
2021/04/11 01:14:20;;;;;;;62.13;34.67;;;8.90;91.70;;;;;;5116807;28;20451;-72
2021/04/11 01:16:46;;;;;;;58.15;33.10;;;8.90;92.20;;;;;;5116807;28;20069;-72
2021/04/11 01:19:20;;;;;;;59.85;33.78;;;8.90;92.00;;;;;;5117591;28;20477;-74
2021/04/11 01:22:13;;;;;;;65.68;33.33;;;8.80;92.10;;;;;;5115646;28;20051;-75
2021/04/11 01:24:52;;;;;;;53.20;30.33;;;8.80;92.10;;;;;;5116819;28;20110;-74
2021/04/11 01:27:24;;;;;;;50.08;28.25;;;8.60;92.30;;;;;;5117268;28;20477;-69
2021/04/11 01:29:52;;;;;;;49.95;29.08;;;8.50;92.30;;;;;;5117202;28;20528;-70
2021/04/11 01:32:20;;;;;;;49.05;29.98;;;8.50;92.60;;;;;;5116655;27;20084;-70
2021/04/11 01:34:47;;;;;;;49.67;28.98;;;8.50;92.80;;;;;;5117037;28;20020;-71
2021/04/11 01:37:16;;;;;;;52.40;27.67;;;8.50;92.90;;;;;;5117743;28;20023;-73
2021/04/11 01:39:45;;;;;;;44.10;26.48;;;8.40;92.70;;;;;;5117028;28;20030;-70
2021/04/11 01:42:12;;;;;;;47.90;26.90;;;8.20;93.40;;;;;;5115900;28;20024;-70
2021/04/11 01:44:41;;;;;;;48.75;27.42;;;8.20;93.80;;;;;;5117109;28;20382;-70
2021/04/11 01:47:08;;;;;;;47.35;26.80;;;8.20;93.80;;;;;;5116661;28;20373;-71
2021/04/11 01:49:35;;;;;;;42.70;25.77;;;8.20;93.60;;;;;;5116011;28;20031;-74
2021/04/11 01:52:07;;;;;;;44.78;26.10;;;8.20;93.90;;;;;;5117496;28;20043;-72
2021/04/11 01:54:35;;;;;;;43.25;26.15;;;8.20;93.90;;;;;;5118068;28;20035;-74
2021/04/11 01:57:19;;;;;;;46.20;26.05;;;8.10;93.90;;;;;;5118141;28;20027;-74
2021/04/11 01:59:45;;;;;;;54.75;28.70;;;8.10;94.10;;;;;;5119023;28;20043;-70
2021/04/11 02:02:16;;;;;;;61.75;28.23;;;8.10;94.20;;;;;;5116292;28;20028;-70
2021/04/11 02:04:42;;;;;;;53.13;28.20;;;8.00;94.50;;;;;;5115242;28;20024;-69
2021/04/11 02:07:10;;;;;;;48.55;28.25;;;8.20;94.10;;;;;;5117880;28;20012;-75
2021/04/11 02:09:47;;;;;;;71.70;38.38;;;8.30;94.20;;;;;;5117737;28;20066;-70
2021/04/11 02:12:17;;;;;;;49.53;29.10;;;8.40;94.10;;;;;;5117539;28;20043;-70
2021/04/11 02:14:44;;;;;;;49.05;28.42;;;8.50;93.70;;;;;;5116341;28;20088;-75
2021/04/11 02:17:11;;;;;;;51.53;28.35;;;8.30;93.80;;;;;;5117109;28;20114;-70
2021/04/11 02:19:38;;;;;;;88.43;50.75;;;8.30;93.90;;;;;;5118847;28;20050;-70
2021/04/11 02:22:27;;;;;;;321.63;170.85;;;8.40;94.10;;;;;;5120187;28;20084;-70
2021/04/11 02:24:53;;;;;;;300.08;160.68;;;8.40;93.30;;;;;;5122669;28;20020;-73
2021/04/11 02:27:21;;;;;;;132.88;74.38;;;8.40;93.20;;;;;;5120716;28;20024;-75
2021/04/11 02:29:48;;;;;;;79.45;45.90;;;8.50;93.40;;;;;;5123907;28;20023;-75
2021/04/11 02:32:15;;;;;;;74.63;42.92;;;8.40;93.50;;;;;;5120842;28;20048;-69
2021/04/11 02:34:44;;;;;;;83.10;42.10;;;8.40;93.80;;;;;;5120502;28;20051;-69
2021/04/11 02:37:24;;;;;;;94.10;45.88;;;8.50;93.40;;;;;;5120943;28;20020;-73
2021/04/11 02:39:55;;;;;;;499.38;233.20;;;8.50;93.30;;;;;;5120715;28;20031;-72
2021/04/11 02:42:25;;;;;;;95.38;46.90;;;8.50;93.10;;;;;;5122419;28;20123;-70
2021/04/11 02:44:54;;;;;;;57.80;32.10;;;8.40;93.40;;;;;;5121628;28;20029;-69
2021/04/11 02:47:20;;;;;;;50.78;28.63;;;8.40;93.30;;;;;;5121919;28;20015;-71
2021/04/11 02:49:50;;;;;;;42.55;27.02;;;8.40;93.50;;;;;;5121919;28;20024;-74
2021/04/11 02:52:37;;;;;;;47.80;28.02;;;8.30;93.40;;;;;;5121604;28;20020;-70
2021/04/11 02:55:03;;;;;;;46.53;27.67;;;8.20;93.30;;;;;;5121266;28;20035;-70
2021/04/11 02:57:30;;;;;;;50.17;28.83;;;8.30;93.80;;;;;;5120521;28;20478;-73
2021/04/11 02:59:57;;;;;;;128.38;81.15;;;8.30;94.00;;;;;;5120242;28;20023;-72
2021/04/11 03:02:24;;;;;;;184.63;122.55;;;8.20;93.50;;;;;;5119806;28;20047;-73
2021/04/11 03:04:55;;;;;;;153.85;102.97;;;8.30;93.50;;;;;;5120479;28;20027;-73
2021/04/11 03:07:30;;;;;;;142.43;98.57;;;8.20;93.90;;;;;;5119707;28;20074;-77
2021/04/11 03:10:03;;;;;;;68.55;41.13;;;8.30;93.60;;;;;;5120954;28;20023;-71
2021/04/11 03:12:29;;;;;;;108.43;72.90;;;8.30;93.50;;;;;;5120511;28;20058;-71
2021/04/11 03:14:59;;;;;;;87.90;55.17;;;8.30;94.00;;;;;;5120382;28;20016;-73
2021/04/11 03:17:26;;;;;;;64.25;37.80;;;8.30;93.80;;;;;;5121781;28;20044;-70
2021/04/11 03:20:20;;;;;;;59.50;34.55;;;8.30;93.60;;;;;;5121584;28;20016;-71
2021/04/11 03:22:51;;;;;;;56.35;34.80;;;8.30;94.30;;;;;;5110633;28;20103;-71
2021/04/11 03:25:18;;;;;;;167.07;123.72;;;8.20;94.30;;;;;;5120446;28;20375;-74
2021/04/11 03:27:59;;;;;;;83.78;55.95;;;8.20;94.30;;;;;;5121755;28;20027;-70
2021/04/11 03:30:32;;;;;;;58.33;36.53;;;8.10;94.60;;;;;;5121361;28;20023;-70
2021/04/11 03:33:01;;;;;;;58.67;34.30;;;8.10;94.60;;;;;;5120501;28;20043;-71
2021/04/11 03:35:31;;;;;;;59.95;36.08;;;8.00;94.60;;;;;;5121209;28;20028;-75
2021/04/11 03:38:00;;;;;;;63.05;35.25;;;8.10;94.50;;;;;;5121140;28;20031;-73
2021/04/11 03:40:30;;;;;;;66.70;43.28;;;8.00;94.70;;;;;;5120020;28;20030;-69
2021/04/11 03:43:15;;;;;;;58.70;35.45;;;8.00;94.90;;;;;;5119641;28;20020;-70
2021/04/11 03:45:41;;;;;;;;;;;8.00;94.40;;;;;;5121786;28;20028;-71
2021/04/11 03:48:45;;;;;;;79.32;48.08;;;8.00;94.80;;;;;;5118863;28;19903;-70
2021/04/11 03:51:19;;;;;;;61.65;40.35;;;8.00;94.70;;;;;;5038685;28;20029;-73
2021/04/11 03:53:50;;;;;;;58.92;36.30;;;8.00;94.20;;;;;;5109549;28;20039;-71
2021/04/11 03:56:21;;;;;;;59.20;34.10;;;7.90;94.20;;;;;;5120999;27;20077;-70
2021/04/11 03:58:52;;;;;;;53.08;32.33;;;7.90;94.30;;;;;;5119542;28;20347;-74
2021/04/11 04:01:25;;;;;;;49.40;30.58;;;7.80;94.80;;;;;;5121513;28;20024;-75
2021/04/11 04:03:56;;;;;;;56.00;33.25;;;7.90;94.90;;;;;;5120865;28;20521;-70
2021/04/11 04:06:30;;;;;;;57.47;33.08;;;7.90;94.80;;;;;;5120288;28;20024;-76
2021/04/11 04:08:57;;;;;;;57.45;32.65;;;7.80;95.30;;;;;;5120686;28;20055;-75
2021/04/11 04:12:00;;;;;;;51.20;31.92;;;7.70;94.90;;;;;;5120158;28;20473;-75
2021/04/11 04:14:56;;;;;;;53.92;29.50;;;7.80;94.90;;;;;;5119395;28;20423;-76
2021/04/11 04:17:47;;;;;;;50.85;31.42;;;7.80;94.90;;;;;;5118819;28;20012;-70
2021/04/11 04:20:25;;;;;;;65.50;47.63;;;7.80;94.80;;;;;;5120340;28;20024;-70
2021/04/11 04:23:38;;;;;;;61.70;42.38;;;7.80;94.20;;;;;;5120667;28;20031;-70
2021/04/11 04:26:15;;;;;;;70.15;47.03;;;7.90;94.00;;;;;;5107468;28;20497;-76
2021/04/11 04:28:49;;;;;;;53.22;30.75;;;7.80;94.00;;;;;;5118118;28;20028;-76
2021/04/11 04:31:49;;;;;;;55.15;30.52;;;7.80;94.40;;;;;;5119150;28;20024;-71
2021/04/11 04:34:36;;;;;;;46.20;27.35;;;7.60;95.00;;;;;;5119030;28;20114;-75
2021/04/11 04:37:17;;;;;;;49.78;26.98;;;7.70;94.70;;;;;;5118676;27;20107;-75
2021/04/11 04:40:01;;;;;;;47.15;25.17;;;7.70;94.50;;;;;;5119010;28;20465;-76
2021/04/11 04:42:46;;;;;;;51.75;33.85;;;7.80;94.20;;;;;;5120487;28;20032;-75
2021/04/11 04:45:25;;;;;;;79.00;49.78;;;7.80;94.60;;;;;;5118117;28;20440;-72
2021/04/11 04:48:00;;;;;;;76.10;45.90;;;7.80;94.00;;;;;;5119025;28;20023;-70
2021/04/11 04:50:36;;;;;;;48.20;31.25;;;7.90;94.20;;;;;;5118619;28;20068;-71
2021/04/11 04:53:20;;;;;;;44.38;27.05;;;7.90;94.70;;;;;;5118817;28;20019;-70
2021/04/11 04:55:51;;;;;;;42.75;26.90;;;7.90;94.50;;;;;;5118822;28;20065;-72
2021/04/11 04:58:24;;;;;;;51.10;33.30;;;7.90;94.40;;;;;;5118018;28;20039;-70
2021/04/11 05:01:01;;;;;;;50.58;31.52;;;7.90;94.40;;;;;;5118620;28;20023;-76
2021/04/11 05:03:34;;;;;;;51.72;32.22;;;8.00;94.30;;;;;;5117694;28;20047;-75
2021/04/11 05:06:09;;;;;;;35.17;20.17;;;8.10;94.10;;;;;;5116999;28;20035;-70
2021/04/11 05:08:44;;;;;;;28.02;17.52;;;;;;;;;;5118000;28;20053;-70
2021/04/11 05:11:38;;;;;;;28.05;16.55;;;8.20;92.60;;;;;;5117219;28;20095;-73
2021/04/11 05:14:22;;;;;;;33.28;18.10;;;8.30;93.10;;;;;;5117168;28;20048;-76
2021/04/11 05:16:54;;;;;;;37.88;24.15;;;8.50;93.00;;;;;;5117559;28;20016;-72
2021/04/11 05:19:30;;;;;;;26.08;17.23;;;8.70;93.00;;;;;;5118846;28;20088;-72
2021/04/11 05:22:17;;;;;;;30.73;16.08;;;8.80;92.80;;;;;;5117284;28;20023;-77
2021/04/11 05:24:46;;;;;;;29.02;16.88;;;8.90;92.00;;;;;;5118038;28;20020;-76
2021/04/11 05:27:29;;;;;;;27.88;18.02;;;9.00;92.70;;;;;;5117563;28;20020;-76
2021/04/11 05:30:17;;;;;;;26.63;16.77;;;9.10;92.20;;;;;;5119057;28;20034;-71
2021/04/11 05:32:46;;;;;;;31.85;19.05;;;9.20;92.00;;;;;;5117896;28;20022;-75
2021/04/11 05:35:13;;;;;;;27.17;17.08;;;9.30;91.60;;;;;;5117866;28;20118;-74
2021/04/11 05:38:06;;;;;;;29.58;19.25;;;9.40;91.60;;;;;;5117205;28;20030;-72
2021/04/11 05:40:36;;;;;;;36.38;18.67;;;9.50;91.70;;;;;;5115995;28;20020;-72
2021/04/11 05:43:40;;;;;;;28.45;18.05;;;9.70;91.50;;;;;;5115414;28;20488;-72
2021/04/11 05:46:28;;;;;;;33.42;19.77;;;9.70;91.90;;;;;;5034220;28;20033;-77
2021/04/11 05:49:02;;;;;;;36.00;22.30;;;9.80;91.20;;;;;;5034642;28;20034;-76
2021/04/11 05:51:40;;;;;;;;;;;9.80;91.30;;;;;;5034872;28;20136;-77
2021/04/11 05:54:20;;;;;;;53.35;31.05;;;10.00;91.40;;;;;;5035624;28;19913;-73
2021/04/11 05:56:57;;;;;;;77.75;43.38;;;10.10;91.30;;;;;;5019091;28;20192;-76
2021/04/11 05:59:39;;;;;;;63.53;36.97;;;10.20;92.20;;;;;;5035754;28;20039;-71
2021/04/11 06:02:09;;;;;;;51.15;29.00;;;10.30;90.70;;;;;;5034066;28;20037;-76
2021/04/11 06:04:55;;;;;;;47.25;27.25;;;10.40;90.60;;;;;;5035202;28;20388;-72
2021/04/11 06:07:32;;;;;;;51.05;26.27;;;10.50;90.20;;;;;;5018881;28;20107;-73
2021/04/11 06:10:17;;;;;;;112.53;57.88;;;10.70;90.60;;;;;;5036394;28;20371;-72
2021/04/11 06:12:56;;;;;;;50.13;28.77;;;10.90;90.30;;;;;;5033673;28;20530;-71
2021/04/11 06:15:35;;;;;;;41.67;23.38;;;10.90;90.70;;;;;;5034473;28;20435;-72
2021/04/11 06:18:05;;;;;;;37.10;22.60;;;11.00;89.80;;;;;;5018080;28;20442;-72
2021/04/11 06:20:33;;;;;;;39.45;23.23;;;11.10;88.10;;;;;;5039897;28;20056;-75
2021/04/11 06:23:13;;;;;;;38.33;22.20;;;11.10;90.00;;;;;;5118637;28;20026;-75
2021/04/11 06:26:01;;;;;;;41.10;21.00;;;11.20;88.00;;;;;;5116657;28;20532;-72
2021/04/11 06:28:32;;;;;;;36.95;20.52;;;11.30;87.30;;;;;;5116835;28;20024;-72
2021/04/11 06:31:07;;;;;;;33.17;20.00;;;11.50;90.30;;;;;;5116135;28;20058;-76
2021/04/11 06:33:43;;;;;;;32.40;19.42;;;11.60;87.50;;;;;;5115809;28;20389;-74
2021/04/11 06:36:17;;;;;;;30.95;18.40;;;11.70;86.60;;;;;;5114234;28;20073;-71
2021/04/11 06:38:50;;;;;;;49.65;27.40;;;11.80;87.50;;;;;;5116225;28;20065;-76
2021/04/11 06:41:43;;;;;;;49.70;37.40;;;12.00;87.70;;;;;;5114540;28;20461;-72
2021/04/11 06:44:36;;;;;;;64.30;53.85;;;12.00;90.20;;;;;;5117489;28;20550;-76
2021/04/11 06:47:07;;;;;;;54.65;42.72;;;12.10;89.80;;;;;;5116887;28;20024;-71
2021/04/11 06:50:30;;;;;;;30.15;19.60;;;12.20;89.70;;;;;;5114534;28;20481;-75
2021/04/11 06:53:22;;;;;;;23.77;11.50;;;12.50;88.80;;;;;;5033745;28;20033;-72
2021/04/11 06:56:21;;;;;;;39.42;24.35;;;12.80;90.00;;;;;;5033686;28;20033;-72
2021/04/11 06:58:50;;;;;;;31.60;19.60;;;13.10;85.80;;;;;;5105571;28;20032;-77
2021/04/11 07:01:39;;;;;;;18.95;9.73;;;13.30;82.10;;;;;;5115940;28;20481;-75
2021/04/11 07:04:42;;;;;;;26.08;13.40;;;13.50;85.60;;;;;;5115492;28;20043;-74
2021/04/11 07:07:27;;;;;;;22.83;14.55;;;13.70;87.50;;;;;;5115297;28;20023;-75
2021/04/11 07:09:58;;;;;;;15.55;9.25;;;14.00;81.00;;;;;;5118336;28;20402;-72
2021/04/11 07:12:43;;;;;;;21.65;9.93;;;14.30;80.80;;;;;;5118841;28;20024;-73
2021/04/11 07:15:33;;;;;;;16.73;9.40;;;14.60;82.40;;;;;;5119709;28;20106;-76
2021/04/11 07:18:18;;;;;;;13.07;8.18;;;14.80;78.10;;;;;;5120438;28;20016;-73
2021/04/11 07:21:03;;;;;;;13.80;8.02;;;14.90;78.30;;;;;;5121212;27;20027;-74
2021/04/11 07:23:47;;;;;;;13.10;7.35;;;;;;;;;;5118073;28;20161;-77
2021/04/11 07:26:44;;;;;;;22.98;13.90;;;15.30;75.00;;;;;;5119684;27;20020;-76
2021/04/11 07:29:47;;;;;;;13.25;6.22;;;15.50;71.50;;;;;;5121329;28;20034;-75
2021/04/11 07:32:22;;;;;;;14.30;5.30;;;15.70;69.80;;;;;;5117516;28;20118;-73
2021/04/11 07:34:57;;;;;;;10.13;4.65;;;16.00;69.60;;;;;;5118534;28;20370;-76
2021/04/11 07:37:32;;;;;;;10.90;6.30;;;16.30;65.40;;;;;;5118736;28;20020;-76
2021/04/11 07:40:05;;;;;;;7.70;4.68;;;16.30;64.20;;;;;;5118800;28;20491;-74
2021/04/11 07:43:00;;;;;;;8.18;4.60;;;16.20;63.50;;;;;;5119859;28;20023;-72
2021/04/11 07:45:48;;;;;;;8.77;4.18;;;16.20;64.90;;;;;;5121315;27;20102;-73
2021/04/11 07:48:53;;;;;;;6.38;3.97;;;16.30;62.60;;;;;;5119966;28;20084;-77
2021/04/11 07:51:37;;;;;;;7.82;4.53;;;16.30;63.30;;;;;;5108130;28;20032;-72
2021/04/11 07:54:09;;;;;;;9.30;4.97;;;16.20;62.30;;;;;;5118821;28;20019;-77
2021/04/11 07:56:53;;;;;;;7.28;4.18;;;16.30;62.50;;;;;;5117962;28;20077;-72
2021/04/11 07:59:37;;;;;;;13.10;8.00;;;16.40;63.50;;;;;;5117154;28;20032;-73
2021/04/11 08:02:15;;;;;;;;;;;16.50;59.50;;;;;;5117913;28;20028;-72
2021/04/11 08:05:19;;;;;;;17.38;10.82;;;16.60;60.30;;;;;;5116966;28;19904;-75
2021/04/11 08:08:03;;;;;;;7.95;4.75;;;16.60;63.00;;;;;;5116880;28;20020;-78
2021/04/11 08:10:37;;;;;;;25.30;18.10;;;16.60;59.40;;;;;;5119360;28;20051;-74
2021/04/11 08:13:33;;;;;;;38.83;28.83;;;16.40;59.70;;;;;;5120210;28;20030;-77
2021/04/11 08:16:32;;;;;;;14.93;10.70;;;16.40;59.10;;;;;;5119334;28;20023;-76
2021/04/11 08:19:36;;;;;;;9.50;4.28;;;16.50;61.90;;;;;;5118048;28;20412;-78
2021/04/11 08:22:28;;;;;;;9.60;4.97;;;16.60;57.90;;;;;;5119357;28;20016;-72
2021/04/11 08:25:16;;;;;;;21.42;12.60;;;16.60;59.40;;;;;;5118847;28;20426;-74
2021/04/11 08:27:53;;;;;;;16.52;10.15;;;16.70;56.50;;;;;;5117792;28;20019;-74
2021/04/11 08:30:31;;;;;;;13.52;8.95;;;16.70;57.60;;;;;;5117975;28;20058;-72
2021/04/11 08:33:05;;;;;;;25.35;17.40;;;16.80;58.60;;;;;;5119475;28;20378;-77
2021/04/11 08:35:57;;;;;;;19.55;11.20;;;16.80;57.20;;;;;;5119431;28;20024;-71
2021/04/11 08:38:59;;;;;;;21.25;13.80;;;16.80;58.20;;;;;;5120073;28;20103;-74
2021/04/11 08:42:02;;;;;;;17.45;9.32;;;16.90;59.20;;;;;;5119211;28;20028;-72
2021/04/11 08:45:05;;;;;;;17.48;9.02;;;17.10;58.30;;;;;;5118239;28;20027;-77
2021/04/11 08:47:42;;;;;;;55.90;35.17;;;17.30;56.50;;;;;;5119696;28;20028;-71
2021/04/11 08:50:36;;;;;;;12.55;7.50;;;17.40;56.00;;;;;;5119473;28;20051;-77
2021/04/11 08:53:25;;;;;;;12.25;6.10;;;17.60;58.10;;;;;;5080637;28;20036;-77
2021/04/11 08:56:30;;;;;;;7.90;4.90;;;18.00;55.90;;;;;;5119621;28;20024;-73
2021/04/11 08:59:24;;;;;;;34.40;21.38;;;18.30;55.10;;;;;;5118027;28;20422;-77
2021/04/11 09:02:08;;;;;;;13.30;6.70;;;18.70;55.70;;;;;;5118117;28;20024;-77
2021/04/11 09:05:12;;;;;;;11.63;7.30;;;19.00;53.80;;;;;;5118275;28;20059;-76
2021/04/11 09:08:02;;;;;;;7.78;4.43;;;18.70;53.50;;;;;;5117548;28;20028;-72
2021/04/11 09:10:56;;;;;;;13.77;7.18;;;18.50;53.90;;;;;;5117005;28;20023;-76
2021/04/11 09:13:31;;;;;;;26.17;19.50;;;18.80;54.50;;;;;;5117339;28;20023;-72
2021/04/11 09:16:09;;;;;;;28.20;22.50;;;19.00;52.10;;;;;;5117529;28;20354;-73
2021/04/11 09:19:14;;;;;;;9.30;4.63;;;19.00;52.10;;;;;;5119139;28;20030;-77
2021/04/11 09:22:08;;;;;;;8.80;4.85;;;18.90;52.20;;;;;;5113089;28;20047;-76
2021/04/11 09:24:58;;;;;;;9.15;6.90;;;19.20;54.40;;;;;;5119203;28;20087;-73
2021/04/11 09:27:45;;;;;;;5.97;3.58;;;19.60;52.00;;;;;;5116505;28;20032;-75
2021/04/11 09:30:44;;;;;;;8.30;3.53;;;19.70;50.80;;;;;;5116069;28;20119;-75
2021/04/11 09:33:30;;;;;;;6.63;3.10;;;19.80;51.60;;;;;;5114670;28;20042;-77
2021/04/11 09:36:18;;;;;;;6.53;3.33;;;19.80;49.90;;;;;;5119023;28;20023;-77
2021/04/11 09:39:02;;;;;;;8.57;3.55;;;19.70;48.90;;;;;;5119191;28;20027;-78
2021/04/11 09:42:02;;;;;;;8.25;3.47;;;19.50;51.90;;;;;;5117715;28;20419;-77
2021/04/11 09:44:31;;;;;;;11.27;4.60;;;19.40;50.90;;;;;;5119154;28;20023;-76
2021/04/11 09:47:16;;;;;;;8.02;4.70;;;19.30;47.60;;;;;;5118619;28;20020;-78
2021/04/11 09:50:00;;;;;;;15.15;12.55;;;19.10;47.20;;;;;;5118960;28;20030;-73
2021/04/11 09:52:39;;;;;;;6.25;2.92;;;19.00;46.40;;;;;;5116477;28;20066;-73
2021/04/11 09:55:25;;;;;;;6.90;3.50;;;19.10;46.60;;;;;;5118527;28;20043;-73
2021/04/11 09:58:27;;;;;;;5.95;3.88;;;19.10;48.10;;;;;;5117493;28;20063;-79
2021/04/11 10:01:18;;;;;;;9.27;5.57;;;19.20;49.10;;;;;;5117791;28;20381;-77
2021/04/11 10:04:02;;;;;;;8.88;5.25;;;19.30;48.20;;;;;;5116003;28;20562;-76
2021/04/11 10:06:41;;;;;;;9.10;5.45;;;19.40;47.20;;;;;;5117872;28;20084;-78
2021/04/11 10:09:25;;;;;;;9.52;5.18;;;19.30;47.10;;;;;;5116378;28;20030;-78
2021/04/11 10:12:18;;;;;;;7.97;5.82;;;19.30;47.10;;;;;;5118828;28;20027;-73
2021/04/11 10:14:59;;;;;;;5.95;3.70;;;19.40;44.70;;;;;;5117206;28;20039;-79
2021/04/11 10:17:47;;;;;;;7.00;3.00;;;19.40;46.90;;;;;;5116694;28;20088;-73
2021/04/11 10:20:18;;;;;;;5.82;2.90;;;19.50;45.60;;;;;;5118631;28;20016;-77
2021/04/11 10:23:20;;;;;;;6.32;2.67;;;19.50;44.90;;;;;;5118465;28;20038;-79
2021/04/11 10:25:58;;;;;;;5.47;3.83;;;19.50;45.20;;;;;;5118367;28;20027;-73
2021/04/11 10:28:37;;;;;;;6.95;3.85;;;19.50;46.10;;;;;;5118403;28;20080;-73
2021/04/11 10:31:20;;;;;;;6.65;4.25;;;19.50;46.20;;;;;;5117245;28;20096;-78
2021/04/11 10:34:09;;;;;;;7.65;3.38;;;19.60;47.40;;;;;;5117678;28;20028;-75
2021/04/11 10:36:47;;;;;;;6.90;3.50;;;19.60;46.10;;;;;;5100188;28;20035;-78
2021/04/11 10:39:22;;;;;;;8.18;3.80;;;19.60;47.80;;;;;;5118630;28;20046;-76
2021/04/11 10:41:55;;;;;;;8.05;3.72;;;19.50;46.30;;;;;;5117115;28;20028;-77
2021/04/11 10:44:59;;;;;;;5.18;3.17;;;19.50;47.00;;;;;;5122644;28;20084;-73
2021/04/11 10:47:47;;;;;;;8.40;5.07;;;19.40;45.80;;;;;;5119924;28;20047;-77
2021/04/11 10:50:31;;;;;;;13.02;7.30;;;19.50;47.40;;;;;;5120245;28;20373;-79
2021/04/11 10:53:12;;;;;;;6.13;3.30;;;19.50;47.10;;;;;;5121138;28;20076;-74
2021/04/11 10:55:50;;;;;;;5.55;3.42;;;19.40;46.10;;;;;;5121489;28;20062;-78
2021/04/11 10:58:31;;;;;;;7.57;3.20;;;19.40;46.70;;;;;;5120243;28;20027;-76
2021/04/11 11:01:02;;;;;;;10.40;4.85;;;19.30;48.50;;;;;;5120679;28;20106;-78
2021/04/11 11:03:46;;;;;;;5.55;3.05;;;19.40;48.40;;;;;;5118634;28;20043;-76
2021/04/11 11:06:18;;;;;;;11.52;3.83;;;19.30;48.00;;;;;;5119644;28;20031;-71
2021/04/11 11:09:00;;;;;;;9.68;5.78;;;19.30;47.90;;;;;;5122820;28;20050;-78
2021/04/11 11:11:52;;;;;;;5.80;3.30;;;19.30;48.30;;;;;;5122223;28;20034;-73
2021/04/11 11:14:40;;;;;;;5.82;3.03;;;19.40;47.30;;;;;;5123012;27;20055;-77
2021/04/11 11:17:42;;;;;;;7.22;3.05;;;19.40;46.60;;;;;;5121755;27;20024;-77
2021/04/11 11:20:31;;;;;;;5.82;3.13;;;19.50;46.10;;;;;;5117714;28;20127;-71
2021/04/11 11:23:38;;;;;;;6.70;3.20;;;19.70;47.20;;;;;;5121124;28;20023;-72
2021/04/11 11:26:21;;;;;;;5.68;3.28;;;19.90;47.70;;;;;;5037291;28;20120;-77
2021/04/11 11:29:24;;;;;;;12.38;7.25;;;19.90;46.50;;;;;;5039137;28;20029;-77
2021/04/11 11:32:11;;;;;;;8.65;3.72;;;19.80;46.10;;;;;;5038539;28;20036;-71
2021/04/11 11:35:00;;;;;;;26.77;16.67;;;19.80;46.20;;;;;;5038137;28;20029;-72
2021/04/11 11:38:09;;;;;;;18.33;8.18;;;19.70;46.70;;;;;;5038238;28;20029;-78
2021/04/11 11:40:38;;;;;;;7.93;3.80;;;19.60;47.80;;;;;;5038182;28;20026;-78
2021/04/11 11:43:36;;;;;;;5.47;3.15;;;19.60;47.80;;;;;;5022187;28;20032;-71
2021/04/11 11:46:10;;;;;;;8.07;4.40;;;19.50;45.20;;;;;;5038140;28;20566;-71
2021/04/11 11:48:54;;;;;;;;;;;19.40;45.10;;;;;;5022041;28;20025;-71
2021/04/11 11:51:55;;;;;;;5.82;3.60;;;19.30;45.80;;;;;;5037748;28;19909;-77
2021/04/11 11:54:27;;;;;;;9.43;5.25;;;19.30;46.30;;;;;;5037349;28;20491;-77
2021/04/11 11:57:34;;;;;;;11.82;6.20;;;19.20;47.30;;;;;;5038631;28;20130;-76
2021/04/11 12:00:13;;;;;;;11.00;6.47;;;19.30;47.80;;;;;;5038232;28;20037;-76
2021/04/11 12:03:00;;;;;;;6.57;3.15;;;19.20;48.00;;;;;;5084391;28;20184;-77
2021/04/11 12:05:39;;;;;;;16.63;8.45;;;19.20;45.80;;;;;;5119724;28;20035;-72
2021/04/11 12:08:19;;;;;;;10.70;5.20;;;19.30;47.00;;;;;;5120597;28;20058;-76
2021/04/11 12:11:28;;;;;;;25.88;12.38;;;19.40;45.90;;;;;;5120595;28;20043;-78
2021/04/11 12:14:01;;;;;;;11.75;6.85;;;19.40;45.30;;;;;;5118557;27;20032;-72
2021/04/11 12:16:45;;;;;;;12.73;8.70;;;19.50;44.30;;;;;;5117984;28;20032;-72
2021/04/11 12:19:37;;;;;;;6.20;3.60;;;19.60;44.70;;;;;;5116449;28;20027;-73
2021/04/11 12:22:15;;;;;;;10.52;5.80;;;19.60;45.90;;;;;;5118395;28;20035;-73
2021/04/11 12:25:22;;;;;;;14.88;6.47;;;19.70;49.60;;;;;;5118851;28;20023;-73
2021/04/11 12:27:48;;;;;;;17.25;8.77;;;19.70;51.10;;;;;;5117344;28;20516;-75
2021/04/11 12:30:35;;;;;;;20.27;10.35;;;19.60;52.60;;;;;;5118386;28;20028;-77
2021/04/11 12:33:12;;;;;;;23.80;14.60;;;19.40;55.20;;;;;;5121243;28;20043;-71
2021/04/11 12:36:03;;;;;;;18.95;10.23;;;19.30;53.60;;;;;;5120180;28;20023;-72
2021/04/11 12:38:33;;;;;;;20.05;10.73;;;19.10;53.50;;;;;;5120449;28;20385;-72
2021/04/11 12:41:21;;;;;;;14.90;10.38;;;19.10;54.10;;;;;;5118133;28;20156;-72
2021/04/11 12:44:14;;;;;;;23.08;9.75;;;18.80;53.10;;;;;;5119206;28;20458;-73
2021/04/11 12:46:59;;;;;;;14.18;9.30;;;18.70;55.00;;;;;;5119380;28;20032;-70
2021/04/11 12:49:28;;;;;;;17.60;10.57;;;18.50;54.90;;;;;;5117418;28;20019;-70
2021/04/11 12:52:21;;;;;;;18.90;11.43;;;18.40;55.50;;;;;;5117638;28;20028;-71
2021/04/11 12:55:09;;;;;;;24.63;13.95;;;18.30;57.20;;;;;;5119905;28;20028;-74
2021/04/11 12:57:43;;;;;;;35.40;19.13;;;18.20;58.50;;;;;;5120362;28;20469;-70
2021/04/11 13:00:19;;;;;;;26.90;14.88;;;18.20;60.30;;;;;;5118379;28;20534;-71
2021/04/11 13:02:59;;;;;;;34.53;17.45;;;18.00;64.30;;;;;;5117062;28;20047;-75
2021/04/11 13:05:45;;;;;;;35.42;18.52;;;17.90;65.80;;;;;;5119825;28;20012;-72
2021/04/11 13:08:11;;;;;;;40.67;23.67;;;17.80;68.80;;;;;;5117459;27;20548;-70
2021/04/11 13:10:55;;;;;;;69.25;37.33;;;17.60;74.00;;;;;;5116371;28;20074;-70
2021/04/11 13:13:41;;;;;;;44.28;26.58;;;17.60;74.50;;;;;;5115126;28;20035;-70
2021/04/11 13:16:14;;;;;;;61.45;35.17;;;17.50;75.60;;;;;;5115660;28;20032;-75
2021/04/11 13:18:48;;;;;;;53.30;29.17;;;17.50;76.70;;;;;;5115998;28;20023;-70
2021/04/11 13:21:24;;;;;;;;;;;17.50;80.50;;;;;;5117626;28;20024;-73
2021/04/11 13:24:22;;;;;;;;;;;17.40;76.20;;;;;;5118760;28;19904;-72
2021/04/11 13:26:56;;;;;;;77.15;38.03;;;17.50;76.60;;;;;;5083811;28;19904;-72
2021/04/11 13:29:43;;;;;;;86.53;45.80;;;17.30;77.60;;;;;;5118358;28;20024;-69
2021/04/11 13:32:24;;;;;;;53.30;28.45;;;17.20;79.70;;;;;;5118972;28;20020;-71
2021/04/11 13:34:55;;;;;;;46.78;23.85;;;17.20;78.10;;;;;;5117775;28;20080;-70
2021/04/11 13:37:22;;;;;;;33.90;19.00;;;17.10;77.20;;;;;;5117675;28;20422;-75
2021/04/11 13:39:50;;;;;;;23.55;13.90;;;17.10;78.80;;;;;;5117104;28;20023;-72
2021/04/11 13:42:31;;;;;;;34.28;17.10;;;17.00;78.30;;;;;;5115579;28;20069;-71